Time;durP1;ratioP1;P1;durP2;ratioP2;P2;SDS_P1;SDS_P2;PMS_P1;PMS_P2;Temp;Humidity;BMP_temperature;BMP_pressure;BME280_temperature;BME280_humidity;BME280_pressure;Samples;Min_cycle;Max_cycle;Signal;HPM_P1;HPM_P2
2021/01/06 00:01:18;;;;;;;106.03;34.72;;;;;;;;;;8192212;28;20050;-74
2021/01/06 00:05:25;;;;;;;95.53;30.33;;;;;;;;;;8191436;28;20502;-73
2021/01/06 00:09:29;;;;;;;70.40;24.45;;;;;;;;;;8192485;28;20384;-73
2021/01/06 00:13:32;;;;;;;46.20;16.00;;;;;;;;;;8191694;28;20375;-73
2021/01/06 00:17:35;;;;;;;43.00;14.93;;;;;;;;;;8157990;28;20357;-73
2021/01/06 00:21:40;;;;;;;55.85;18.95;;;;;;;;;;8158872;28;20460;-74
2021/01/06 00:25:43;;;;;;;50.33;19.50;;;;;;;;;;8142623;28;20504;-74
2021/01/06 00:29:46;;;;;;;50.97;19.08;;;;;;;;;;8143623;28;20416;-73
2021/01/06 00:33:49;;;;;;;42.83;17.38;;;;;;;;;;8160424;28;20388;-73
2021/01/06 00:37:57;;;;;;;53.67;18.00;;;;;;;;;;8166372;28;20376;-74
2021/01/06 00:42:00;;;;;;;49.13;17.55;;;;;;;;;;8160580;28;20488;-73
2021/01/06 00:46:05;;;;;;;55.72;20.35;;;;;;;;;;8143280;28;20473;-73
2021/01/06 00:50:09;;;;;;;75.22;24.45;;;;;;;;;;8143191;28;20465;-74
2021/01/06 00:54:13;;;;;;;85.97;27.95;;;;;;;;;;8159680;28;20469;-74
2021/01/06 00:58:17;;;;;;;60.30;18.88;;;;;;;;;;8142800;28;20478;-73
2021/01/06 01:02:21;;;;;;;86.47;26.85;;;;;;;;;;8130602;28;20388;-73
2021/01/06 01:06:31;;;;;;;70.72;25.52;;;;;;;;;;8173558;28;20407;-74
2021/01/06 01:10:44;;;;;;;61.88;24.25;;;;;;;;;;8176276;28;20483;-74
2021/01/06 01:14:47;;;;;;;42.97;18.70;;;;;;;;;;8175097;28;20079;-73
2021/01/06 01:18:50;;;;;;;91.70;30.00;;;;;;;;;;8191855;28;20508;-73
2021/01/06 01:22:53;;;;;;;36.33;15.63;;;;;;;;;;8191972;28;20359;-73
2021/01/06 01:26:57;;;;;;;38.42;15.38;;;;;;;;;;8191700;28;20468;-73
2021/01/06 01:41:37;;;;;;;36.22;15.25;;;;;;;;;;8163427;28;20488;-73
2021/01/06 01:46:00;;;;;;;28.35;13.20;;;;;;;;;;8180170;28;20499;-74
2021/01/06 01:50:06;;;;;;;38.85;16.23;;;;;;;;;;8197376;28;20375;-73
2021/01/06 01:54:15;;;;;;;44.42;19.23;;;;;;;;;;8166454;28;20480;-73
2021/01/06 01:58:24;;;;;;;48.72;18.42;;;;;;;;;;8180856;28;20108;-73
2021/01/06 02:03:05;;;;;;;60.55;22.33;;;;;;;;;;8163774;28;20064;-73
2021/01/06 02:07:18;;;;;;;39.97;17.13;;;;;;;;;;8179708;28;20472;-74
2021/01/06 02:11:42;;;;;;;60.78;22.73;;;;;;;;;;8179869;28;20419;-73
2021/01/06 02:16:01;;;;;;;42.35;17.30;;;;;;;;;;8181217;28;20383;-74
2021/01/06 02:20:13;;;;;;;40.10;16.37;;;;;;;;;;8197140;28;20376;-74
2021/01/06 02:24:16;;;;;;;46.28;19.13;;;;;;;;;;8179041;28;20412;-73
2021/01/06 02:28:19;;;;;;;61.70;23.77;;;;;;;;;;8178758;28;20046;-73
2021/01/06 02:32:22;;;;;;;46.15;19.33;;;;;;;;;;8196613;28;20372;-74
2021/01/06 02:36:26;;;;;;;46.05;20.20;;;;;;;;;;8177709;28;20054;-74
2021/01/06 02:40:29;;;;;;;44.97;18.20;;;;;;;;;;8196016;28;20384;-74
2021/01/06 02:44:33;;;;;;;43.83;18.40;;;;;;;;;;8194626;28;20492;-74
2021/01/06 02:48:38;;;;;;;49.05;20.40;;;;;;;;;;8162518;28;20574;-74
2021/01/06 02:52:53;;;;;;;44.90;18.75;;;;;;;;;;8196422;28;20424;-74
2021/01/06 02:56:59;;;;;;;55.55;21.58;;;;;;;;;;8178061;28;20357;-75
2021/01/06 03:01:02;;;;;;;49.63;21.42;;;;;;;;;;8177843;28;20407;-74
2021/01/06 03:05:32;;;;;;;49.85;19.70;;;;;;;;;;8195447;28;20369;-74
2021/01/06 03:09:40;;;;;;;38.45;18.30;;;;;;;;;;8180127;28;20057;-74
2021/01/06 03:13:43;;;;;;;42.15;19.80;;;;;;;;;;8161334;28;20058;-73
2021/01/06 03:17:46;;;;;;;47.38;20.25;;;;;;;;;;8163234;28;20058;-74
2021/01/06 03:21:51;;;;;;;41.92;17.10;;;;;;;;;;8161605;28;20380;-74
2021/01/06 03:25:59;;;;;;;50.47;18.20;;;;;;;;;;8145998;28;20509;-74
2021/01/06 03:30:09;;;;;;;40.60;16.25;;;;;;;;;;8161290;28;20468;-73
2021/01/06 03:34:22;;;;;;;42.50;15.65;;;;;;;;;;8161327;28;20379;-74
2021/01/06 03:38:45;;;;;;;36.63;15.30;;;;;;;;;;8162290;28;20416;-74
2021/01/06 03:42:48;;;;;;;38.90;16.05;;;;;;;;;;8160967;28;20430;-74
2021/01/06 03:47:14;;;;;;;56.25;22.73;;;;;;;;;;8160809;28;20392;-73
2021/01/06 03:52:10;;;;;;;49.30;19.48;;;;;;;;;;8162007;28;20381;-74
2021/01/06 03:56:22;;;;;;;46.63;19.60;;;;;;;;;;8130915;28;20420;-74
2021/01/06 04:00:53;;;;;;;39.35;17.67;;;;;;;;;;8160128;28;20416;-74
2021/01/06 04:05:07;;;;;;;35.83;15.32;;;;;;;;;;8160561;28;20062;-74
2021/01/06 04:09:32;;;;;;;37.53;14.90;;;;;;;;;;8160080;28;20050;-74
2021/01/06 04:13:36;;;;;;;41.13;16.17;;;;;;;;;;8159756;28;20389;-74
2021/01/06 04:17:44;;;;;;;44.22;17.00;;;;;;;;;;8161264;28;20385;-74
2021/01/06 04:21:47;;;;;;;36.33;15.52;;;;;;;;;;8160583;28;20381;-74
2021/01/06 04:25:51;;;;;;;39.05;16.13;;;;;;;;;;8160672;28;20480;-74
2021/01/06 04:29:55;;;;;;;36.22;15.02;;;;;;;;;;8160701;28;20461;-74
2021/01/06 04:33:58;;;;;;;36.85;15.75;;;;;;;;;;8158988;28;20404;-74
2021/01/06 04:38:02;;;;;;;43.30;15.90;;;;;;;;;;8158756;28;20042;-74
2021/01/06 04:42:07;;;;;;;33.28;15.45;;;;;;;;;;8162182;28;20489;-74
2021/01/06 04:46:38;;;;;;;40.13;15.55;;;;;;;;;;8158405;28;20417;-74
2021/01/06 04:51:09;;;;;;;32.72;14.40;;;;;;;;;;8160378;28;20483;-74
2021/01/06 04:56:08;;;;;;;36.13;16.15;;;;;;;;;;8160154;28;20073;-74
2021/01/06 05:00:13;;;;;;;38.03;17.13;;;;;;;;;;8160531;28;20342;-74
2021/01/06 05:05:09;;;;;;;56.17;19.48;;;;;;;;;;8159955;28;20479;-74
2021/01/06 05:09:33;;;;;;;44.80;16.90;;;;;;;;;;8149468;28;20061;-75
2021/01/06 05:14:09;;;;;;;39.63;15.60;;;;;;;;;;8145264;28;20489;-74
2021/01/06 05:18:13;;;;;;;40.20;17.58;;;;;;;;;;8158241;28;20461;-74
2021/01/06 05:22:17;;;;;;;36.63;15.73;;;;;;;;;;8121216;28;20492;-75
2021/01/06 05:26:20;;;;;;;40.63;16.45;;;;;;;;;;8121648;28;20055;-74
2021/01/06 05:30:34;;;;;;;35.08;14.85;;;;;;;;;;8122034;28;20385;-74
2021/01/06 05:34:37;;;;;;;39.03;16.40;;;;;;;;;;8107137;28;20043;-74
2021/01/06 05:38:40;;;;;;;32.33;14.77;;;;;;;;;;8106047;28;20106;-74
2021/01/06 05:42:59;;;;;;;40.80;15.68;;;;;;;;;;8122573;28;20075;-75
2021/01/06 05:47:16;;;;;;;35.05;14.35;;;;;;;;;;8106664;28;20390;-74
2021/01/06 05:51:34;;;;;;;57.03;23.13;;;;;;;;;;8128394;28;20384;-75
2021/01/06 05:55:37;;;;;;;42.42;14.63;;;;;;;;;;8158101;28;20038;-74
2021/01/06 06:00:02;;;;;;;31.75;14.07;;;;;;;;;;8157548;28;20493;-76
2021/01/06 06:04:27;;;;;;;35.65;16.33;;;;;;;;;;8155659;28;20420;-74
2021/01/06 06:08:53;;;;;;;31.65;14.85;;;;;;;;;;8155330;28;20046;-74
2021/01/06 06:13:17;;;;;;;31.35;13.95;;;;;;;;;;8157110;28;20375;-75
2021/01/06 06:17:31;;;;;;;32.25;13.27;;;;;;;;;;8158331;28;20456;-74
2021/01/06 06:22:01;;;;;;;30.00;12.68;;;;;;;;;;8144789;28;20495;-74
2021/01/06 06:26:35;;;;;;;34.00;13.77;;;;;;;;;;8137789;28;20058;-74
2021/01/06 06:31:11;;;;;;;33.78;13.82;;;;;;;;;;8146127;28;20417;-74
2021/01/06 06:35:25;;;;;;;29.40;12.27;;;;;;;;;;8163492;28;20475;-75
2021/01/06 06:39:35;;;;;;;29.10;15.13;;;;;;;;;;8160517;28;20506;-75
2021/01/06 06:43:39;;;;;;;35.88;12.80;;;;;;;;;;8162836;28;20474;-75
2021/01/06 06:47:52;;;;;;;35.03;14.20;;;;;;;;;;8163338;28;20042;-74
2021/01/06 06:52:31;;;;;;;30.92;13.50;;;;;;;;;;8176645;28;20487;-74
2021/01/06 06:56:51;;;;;;;33.85;15.55;;;;;;;;;;8161686;28;20457;-75
2021/01/06 07:00:56;;;;;;;35.45;14.63;;;;;;;;;;8160575;28;20484;-75
2021/01/06 07:05:26;;;;;;;28.38;13.20;;;;;;;;;;8161960;28;20419;-74
2021/01/06 07:09:35;;;;;;;27.08;13.45;;;;;;;;;;8160747;28;20381;-74
2021/01/06 07:13:40;;;;;;;30.92;14.48;;;;;;;;;;8160562;28;20373;-74
2021/01/06 07:17:43;;;;;;;31.58;14.68;;;;;;;;;;8144016;28;20393;-74
2021/01/06 07:22:16;;;;;;;34.13;16.25;;;;;;;;;;8160107;28;20397;-74
2021/01/06 07:26:41;;;;;;;31.10;14.77;;;;;;;;;;8161709;28;20072;-74
2021/01/06 07:30:50;;;;;;;43.60;18.52;;;;;;;;;;8128748;28;20077;-74
2021/01/06 07:34:56;;;;;;;88.45;37.97;;;;;;;;;;8161415;28;20415;-74
2021/01/06 07:39:01;;;;;;;76.03;35.42;;;;;;;;;;8123576;28;20472;-74
2021/01/06 07:43:07;;;;;;;125.90;55.15;;;;;;;;;;8158920;28;20465;-74
2021/01/06 07:47:17;;;;;;;102.78;45.85;;;;;;;;;;8159629;28;20488;-74
2021/01/06 07:52:12;;;;;;;38.65;19.02;;;;;;;;;;8150602;28;20404;-75
2021/01/06 07:56:36;;;;;;;44.20;21.20;;;;;;;;;;8108351;28;20378;-73
2021/01/06 08:01:06;;;;;;;40.92;20.75;;;;;;;;;;8149408;28;20358;-73
2021/01/06 08:05:32;;;;;;;39.08;18.63;;;;;;;;;;8158513;28;20475;-73
2021/01/06 08:09:42;;;;;;;40.80;20.15;;;;;;;;;;8157985;28;20069;-73
2021/01/06 08:13:48;;;;;;;51.33;21.95;;;;;;;;;;8141513;28;20511;-74
2021/01/06 08:18:18;;;;;;;53.47;24.63;;;;;;;;;;8129946;28;20389;-73
2021/01/06 08:22:38;;;;;;;45.22;23.17;;;;;;;;;;8123064;28;20462;-74
2021/01/06 08:27:01;;;;;;;42.13;18.40;;;;;;;;;;8110690;28;20465;-74
2021/01/06 08:31:20;;;;;;;34.92;16.90;;;;;;;;;;8125351;28;20405;-74
2021/01/06 08:35:32;;;;;;;;;;;;;;;;;;8125897;28;20485;-74
2021/01/06 08:39:55;;;;;;;33.35;16.95;;;;;;;;;;8110464;28;20276;-71
2021/01/06 08:43:59;;;;;;;32.55;15.68;;;;;;;;;;8073637;29;20490;-72
2021/01/06 08:48:36;;;;;;;27.65;14.85;;;;;;;;;;8008133;29;20759;-74
2021/01/06 08:53:03;;;;;;;59.85;30.75;;;;;;;;;;8005697;29;20079;-74
2021/01/06 08:57:37;;;;;;;44.60;22.88;;;;;;;;;;7997982;29;20384;-75
2021/01/06 09:01:49;;;;;;;33.63;17.88;;;;;;;;;;7995678;29;20493;-75
2021/01/06 09:06:02;;;;;;;28.25;15.63;;;;;;;;;;7994280;29;20959;-74
2021/01/06 09:10:16;;;;;;;30.25;15.90;;;;;;;;;;7997546;29;20384;-74
2021/01/06 09:14:36;;;;;;;27.70;14.02;;;;;;;;;;7972675;29;20361;-74
2021/01/06 09:19:18;;;;;;;114.03;55.38;;;;;;;;;;8013520;29;20383;-74
2021/01/06 09:23:22;;;;;;;1595.60;660.63;;;;;;;;;;8045991;29;20380;-74
2021/01/06 09:27:39;;;;;;;252.68;101.95;;;;;;;;;;8100407;28;20366;-74
2021/01/06 09:31:50;;;;;;;113.28;74.53;;;;;;;;;;8113441;28;20389;-74
2021/01/06 09:35:53;;;;;;;37.78;17.92;;;;;;;;;;8112546;28;20498;-74
2021/01/06 09:40:18;;;;;;;33.03;14.80;;;;;;;;;;8079734;28;20480;-74
2021/01/06 09:44:21;;;;;;;31.40;15.57;;;;;;;;;;8099495;28;20046;-74
2021/01/06 09:48:25;;;;;;;34.47;16.38;;;;;;;;;;8101569;28;20055;-74
2021/01/06 09:52:40;;;;;;;35.10;16.63;;;;;;;;;;8120350;28;20374;-74
2021/01/06 09:56:43;;;;;;;26.63;14.13;;;;;;;;;;8123320;28;20392;-74
2021/01/06 10:01:15;;;;;;;25.35;13.68;;;;;;;;;;8119077;28;20487;-74
2021/01/06 10:06:00;;;;;;;30.00;13.80;;;;;;;;;;8109393;28;20077;-74
2021/01/06 10:10:27;;;;;;;27.92;11.90;;;;;;;;;;8097149;29;20461;-75
2021/01/06 10:15:03;;;;;;;28.13;13.25;;;;;;;;;;8112361;28;20496;-74
2021/01/06 10:19:18;;;;;;;29.70;12.40;;;;;;;;;;8096709;29;20382;-74
2021/01/06 10:24:02;;;;;;;46.00;19.52;;;;;;;;;;8097969;29;20051;-74
2021/01/06 10:28:28;;;;;;;36.03;16.55;;;;;;;;;;8098084;28;20055;-75
2021/01/06 10:33:25;;;;;;;62.90;26.13;;;;;;;;;;8097400;29;20543;-74
2021/01/06 10:37:30;;;;;;;52.05;22.00;;;;;;;;;;8096213;29;20473;-74
2021/01/06 10:41:35;;;;;;;44.13;20.17;;;;;;;;;;8095426;29;20373;-74
2021/01/06 10:45:47;;;;;;;72.15;29.48;;;;;;;;;;8096717;28;20508;-74
2021/01/06 10:50:48;;;;;;;91.57;30.50;;;;;;;;;;8079928;29;20442;-73
2021/01/06 10:54:56;;;;;;;34.10;15.73;;;;;;;;;;8092876;28;20474;-73
2021/01/06 10:59:06;;;;;;;36.42;16.70;;;;;;;;;;8097885;29;20389;-73
2021/01/06 11:03:52;;;;;;;33.53;15.82;;;;;;;;;;8096127;28;20382;-74
2021/01/06 11:08:38;;;;;;;43.63;17.67;;;;;;;;;;8097008;29;20500;-74
2021/01/06 11:13:03;;;;;;;43.55;19.08;;;;;;;;;;8136619;28;20392;-73
2021/01/06 11:17:38;;;;;;;52.30;20.85;;;;;;;;;;8163238;28;20072;-73
2021/01/06 11:22:18;;;;;;;61.05;28.42;;;;;;;;;;8155048;28;20359;-75
2021/01/06 11:26:21;;;;;;;48.92;20.48;;;;;;;;;;8166200;28;20093;-73
2021/01/06 11:30:40;;;;;;;58.83;25.95;;;;;;;;;;8171515;28;20369;-74
2021/01/06 11:34:56;;;;;;;44.75;21.70;;;;;;;;;;8143852;28;20380;-74
2021/01/06 11:39:01;;;;;;;57.47;22.27;;;;;;;;;;8149187;28;20364;-74
2021/01/06 11:43:03;;;;;;;63.60;25.70;;;;;;;;;;8172510;28;20381;-74
2021/01/06 11:47:37;;;;;;;60.10;24.15;;;;;;;;;;8167368;28;21577;-74
2021/01/06 11:52:28;;;;;;;41.72;19.45;;;;;;;;;;8172273;28;20465;-75
2021/01/06 11:56:34;;;;;;;42.55;18.88;;;;;;;;;;8150404;28;20373;-73
2021/01/06 12:00:43;;;;;;;46.25;21.17;;;;;;;;;;8140155;28;20395;-73
2021/01/06 12:05:24;;;;;;;47.67;20.90;;;;;;;;;;8155335;28;20514;-74
2021/01/06 12:09:56;;;;;;;46.80;21.70;;;;;;;;;;8154287;28;20054;-74
2021/01/06 12:14:24;;;;;;;54.42;24.20;;;;;;;;;;8140126;28;20058;-73
2021/01/06 12:19:01;;;;;;;44.75;22.42;;;;;;;;;;8142167;28;20080;-74
2021/01/06 12:23:14;;;;;;;;;;;;;;;;;;8160277;28;20385;-74
2021/01/06 12:28:04;;;;;;;92.85;33.65;;;;;;;;;;8168663;28;20283;-74
2021/01/06 12:32:25;;;;;;;40.95;18.25;;;;;;;;;;8137562;28;20539;-74
2021/01/06 12:36:35;;;;;;;34.25;16.55;;;;;;;;;;8155113;28;20449;-73
2021/01/06 12:41:04;;;;;;;43.13;17.45;;;;;;;;;;8158127;28;20461;-73
2021/01/06 12:45:13;;;;;;;34.78;16.50;;;;;;;;;;8168336;28;20081;-73
2021/01/06 12:49:21;;;;;;;;;;;;;;;;;;8155793;28;20472;-72
2021/01/06 12:53:37;;;;;;;33.92;15.48;;;;;;;;;;8139254;28;20370;-72
2021/01/06 12:57:53;;;;;;;39.53;17.23;;;;;;;;;;8147988;28;20393;-72
2021/01/06 13:01:59;;;;;;;36.33;17.38;;;;;;;;;;8139786;28;20080;-74
2021/01/06 13:06:15;;;;;;;35.38;16.83;;;;;;;;;;8171471;28;20484;-73
2021/01/06 13:10:18;;;;;;;38.92;17.35;;;;;;;;;;8168537;28;20503;-73
2021/01/06 13:14:45;;;;;;;37.50;19.17;;;;;;;;;;8187359;28;20046;-72
2021/01/06 13:19:23;;;;;;;38.00;17.08;;;;;;;;;;8186599;28;20055;-72
2021/01/06 13:23:55;;;;;;;45.45;22.05;;;;;;;;;;8187239;28;20401;-72
2021/01/06 13:28:24;;;;;;;83.10;34.55;;;;;;;;;;8174563;28;20075;-73
2021/01/06 13:32:46;;;;;;;53.85;23.00;;;;;;;;;;8180543;28;20400;-73
2021/01/06 13:37:03;;;;;;;80.13;32.45;;;;;;;;;;8178743;28;20476;-73
2021/01/06 13:41:30;;;;;;;170.43;62.70;;;;;;;;;;8114277;28;20058;-73
2021/01/06 13:45:46;;;;;;;1042.47;441.25;;;;;;;;;;8177328;28;20480;-72
2021/01/06 13:50:03;;;;;;;184.65;54.75;;;;;;;;;;8171049;28;20400;-73
2021/01/06 13:54:39;;;;;;;162.80;53.50;;;;;;;;;;8169168;28;20510;-72
2021/01/06 13:59:31;;;;;;;459.88;112.38;;;;;;;;;;8181736;28;20476;-73
2021/01/06 14:03:40;;;;;;;143.05;42.67;;;;;;;;;;8163096;28;20372;-72
2021/01/06 14:08:08;;;;;;;431.98;90.78;;;;;;;;;;8176136;28;20438;-73
2021/01/06 14:12:35;;;;;;;113.30;38.38;;;;;;;;;;8176367;28;20369;-72
2021/01/06 14:16:57;;;;;;;692.28;144.85;;;;;;;;;;8191058;28;20464;-73
2021/01/06 14:21:42;;;;;;;337.13;72.70;;;;;;;;;;8184202;28;20373;-72
2021/01/06 14:25:49;;;;;;;95.70;29.52;;;;;;;;;;8171523;28;20365;-71
2021/01/06 14:30:14;;;;;;;52.58;21.92;;;;;;;;;;8164279;28;20484;-71
2021/01/06 14:34:29;;;;;;;41.53;19.52;;;;;;;;;;8158408;28;20565;-71
2021/01/06 14:38:34;;;;;;;83.78;34.00;;;;;;;;;;8162720;28;20389;-71
2021/01/06 14:43:20;;;;;;;259.40;84.00;;;;;;;;;;8151220;28;20394;-71
2021/01/06 14:48:08;;;;;;;78.88;34.08;;;;;;;;;;8081564;29;20412;-70
2021/01/06 14:52:20;;;;;;;;;;;;;;;;;;8044581;29;20470;-70
2021/01/06 14:56:42;;;;;;;74.82;30.50;;;;;;;;;;8094612;28;20305;-70
2021/01/06 15:00:48;;;;;;;46.90;23.70;;;;;;;;;;8092154;28;20470;-71
2021/01/06 15:05:29;;;;;;;61.38;26.40;;;;;;;;;;8091945;28;20363;-71
2021/01/06 15:09:55;;;;;;;61.65;28.20;;;;;;;;;;8076630;28;20429;-70
2021/01/06 15:14:08;;;;;;;91.38;38.33;;;;;;;;;;8066857;29;20385;-72
2021/01/06 15:18:24;;;;;;;155.05;57.63;;;;;;;;;;8146048;28;20038;-72
2021/01/06 15:22:36;;;;;;;227.50;75.47;;;;;;;;;;8175010;28;20076;-73
2021/01/06 15:26:52;;;;;;;251.73;89.75;;;;;;;;;;8185144;28;20487;-72
2021/01/06 15:31:11;;;;;;;205.75;64.78;;;;;;;;;;8142771;28;20399;-72
2021/01/06 15:35:32;;;;;;;145.77;46.33;;;;;;;;;;8170426;28;20380;-72
2021/01/06 15:39:39;;;;;;;152.55;46.15;;;;;;;;;;8158210;28;20424;-72
2021/01/06 15:43:49;;;;;;;132.60;43.67;;;;;;;;;;8166936;28;20515;-74
2021/01/06 15:48:14;;;;;;;130.07;44.88;;;;;;;;;;8174066;28;20061;-71
2021/01/06 15:52:48;;;;;;;153.48;51.80;;;;;;;;;;8190424;28;20492;-73
2021/01/06 15:57:04;;;;;;;172.73;64.30;;;;;;;;;;8153694;28;20413;-73
2021/01/06 16:01:16;;;;;;;185.38;70.97;;;;;;;;;;8171084;28;20375;-73
2021/01/06 16:05:37;;;;;;;210.88;81.47;;;;;;;;;;8170655;28;20379;-72
2021/01/06 16:09:40;;;;;;;208.85;79.97;;;;;;;;;;8144457;28;20484;-72
2021/01/06 16:13:46;;;;;;;208.32;83.10;;;;;;;;;;8158107;28;20380;-73
2021/01/06 16:18:07;;;;;;;266.90;107.72;;;;;;;;;;8173137;28;20468;-72
2021/01/06 16:22:32;;;;;;;276.35;113.55;;;;;;;;;;8173453;28;20453;-73
2021/01/06 16:26:41;;;;;;;252.93;99.22;;;;;;;;;;8173750;28;20514;-69
2021/01/06 16:30:51;;;;;;;;;;;;;;;;;;8173992;28;20093;-70
2021/01/06 16:35:19;;;;;;;180.18;69.78;;;;;;;;;;8170764;28;20373;-71
2021/01/06 16:39:26;;;;;;;210.32;75.75;;;;;;;;;;8157763;28;20480;-70
2021/01/06 16:43:35;;;;;;;201.35;76.35;;;;;;;;;;8139600;28;20370;-70
2021/01/06 16:47:38;;;;;;;184.95;74.85;;;;;;;;;;8138557;28;20485;-71
2021/01/06 16:51:56;;;;;;;182.05;74.45;;;;;;;;;;8155973;28;20108;-71
2021/01/06 16:56:26;;;;;;;197.60;79.07;;;;;;;;;;8138937;28;20385;-71
2021/01/06 17:00:36;;;;;;;203.93;75.80;;;;;;;;;;8119006;28;20520;-72
2021/01/06 17:04:41;;;;;;;236.20;89.53;;;;;;;;;;8078783;28;20384;-72
2021/01/06 17:08:48;;;;;;;258.95;97.85;;;;;;;;;;8081250;28;20477;-72
2021/01/06 17:13:12;;;;;;;245.65;87.10;;;;;;;;;;8105784;28;20389;-71
2021/01/06 17:17:26;;;;;;;233.15;84.22;;;;;;;;;;8091282;28;20374;-71
2021/01/06 17:21:36;;;;;;;223.65;87.45;;;;;;;;;;8107245;28;20465;-71
2021/01/06 17:25:39;;;;;;;231.93;85.35;;;;;;;;;;8139048;28;20377;-72
2021/01/06 17:29:42;;;;;;;227.90;84.90;;;;;;;;;;8121560;28;20477;-73
2021/01/06 17:33:46;;;;;;;236.02;87.40;;;;;;;;;;8112134;28;20121;-72
2021/01/06 17:37:51;;;;;;;207.98;74.97;;;;;;;;;;8055204;28;20508;-72
2021/01/06 17:41:54;;;;;;;176.50;64.15;;;;;;;;;;8106382;28;20366;-72
2021/01/06 17:46:00;;;;;;;166.10;65.15;;;;;;;;;;8045329;28;20050;-72
2021/01/06 17:50:06;;;;;;;124.50;45.97;;;;;;;;;;8110654;28;20042;-71
2021/01/06 17:54:12;;;;;;;112.65;42.13;;;;;;;;;;8104263;28;20397;-72
2021/01/06 17:58:17;;;;;;;88.97;34.90;;;;;;;;;;8133487;28;20051;-71
2021/01/06 18:02:20;;;;;;;98.85;38.88;;;;;;;;;;8137330;28;20457;-72
2021/01/06 18:06:25;;;;;;;81.55;31.00;;;;;;;;;;8105125;28;20495;-72
2021/01/06 18:10:37;;;;;;;61.30;24.10;;;;;;;;;;8136413;28;20528;-74
2021/01/06 18:14:40;;;;;;;83.15;30.50;;;;;;;;;;8156121;28;20488;-73
2021/01/06 18:18:44;;;;;;;63.28;26.77;;;;;;;;;;8110681;28;20485;-72
2021/01/06 18:22:56;;;;;;;68.03;25.75;;;;;;;;;;8160049;28;20546;-72
2021/01/06 18:27:04;;;;;;;71.10;26.45;;;;;;;;;;8092347;28;20588;-71
2021/01/06 18:31:09;;;;;;;68.57;26.48;;;;;;;;;;8090195;29;20378;-71
2021/01/06 18:35:16;;;;;;;86.88;34.50;;;;;;;;;;8079149;28;20081;-71
2021/01/06 18:39:25;;;;;;;63.17;29.42;;;;;;;;;;7987221;28;20081;-71
2021/01/06 18:43:29;;;;;;;46.97;21.77;;;;;;;;;;8064284;28;20482;-71
2021/01/06 18:47:49;;;;;;;66.45;27.10;;;;;;;;;;8080986;28;20070;-72
2021/01/06 18:52:00;;;;;;;76.55;29.52;;;;;;;;;;8057773;29;20393;-72
2021/01/06 19:00:37;;;;;;;105.28;37.90;;;;;;;;;;8094226;28;20465;-71
2021/01/06 19:04:43;;;;;;;135.60;42.80;;;;;;;;;;8127811;28;20515;-71
2021/01/06 19:08:51;;;;;;;109.35;37.75;;;;;;;;;;8014013;28;20483;-71
2021/01/06 19:13:02;;;;;;;107.88;40.25;;;;;;;;;;8084304;28;20076;-71
2021/01/06 19:17:19;;;;;;;101.90;36.92;;;;;;;;;;8110392;28;20058;-72
2021/01/06 19:21:39;;;;;;;149.48;49.92;;;;;;;;;;8071293;28;20484;-72
2021/01/06 19:25:45;;;;;;;158.98;54.03;;;;;;;;;;8061201;28;20497;-71
2021/01/06 19:30:10;;;;;;;163.23;52.08;;;;;;;;;;8103778;28;20046;-74
2021/01/06 19:34:18;;;;;;;192.10;61.95;;;;;;;;;;7928195;28;20478;-72
2021/01/06 19:38:22;;;;;;;191.95;61.83;;;;;;;;;;8101810;28;20491;-72
2021/01/06 19:42:28;;;;;;;184.65;63.08;;;;;;;;;;8123542;28;20484;-71
2021/01/06 19:46:42;;;;;;;184.20;59.80;;;;;;;;;;8076285;28;20461;-72
2021/01/06 19:50:45;;;;;;;174.63;56.35;;;;;;;;;;8162409;28;20050;-71
2021/01/06 19:54:50;;;;;;;151.20;50.92;;;;;;;;;;8112654;28;20384;-71
2021/01/06 19:59:02;;;;;;;178.02;57.22;;;;;;;;;;8083869;28;20366;-71
2021/01/06 20:03:16;;;;;;;150.43;48.78;;;;;;;;;;8147778;28;20496;-71
2021/01/06 20:07:21;;;;;;;168.40;51.63;;;;;;;;;;8128165;28;20054;-71
2021/01/06 20:11:29;;;;;;;149.82;47.45;;;;;;;;;;8162047;28;20385;-71
2021/01/06 20:15:36;;;;;;;130.23;44.40;;;;;;;;;;8128087;28;20369;-71
2021/01/06 20:19:42;;;;;;;122.80;42.30;;;;;;;;;;7980987;28;20469;-72
2021/01/06 20:23:45;;;;;;;122.32;42.13;;;;;;;;;;8158529;28;20065;-72
2021/01/06 20:27:51;;;;;;;139.93;45.30;;;;;;;;;;8135985;28;20050;-72
2021/01/06 20:31:59;;;;;;;379.70;84.85;;;;;;;;;;8120146;28;20068;-72
2021/01/06 20:36:04;;;;;;;208.90;55.50;;;;;;;;;;8147279;28;20041;-73
2021/01/06 20:40:08;;;;;;;146.23;43.13;;;;;;;;;;8174254;28;20372;-73
2021/01/06 20:44:11;;;;;;;228.05;70.25;;;;;;;;;;8192732;28;20408;-74
2021/01/06 20:48:20;;;;;;;77.43;31.38;;;;;;;;;;8191295;28;20375;-72
2021/01/06 20:52:23;;;;;;;101.72;37.58;;;;;;;;;;8175844;28;20369;-73
2021/01/06 20:56:26;;;;;;;90.43;35.63;;;;;;;;;;8192509;28;20368;-72
2021/01/06 21:00:30;;;;;;;78.43;29.92;;;;;;;;;;8158716;28;20380;-72
2021/01/06 21:04:34;;;;;;;79.38;31.40;;;;;;;;;;8174742;28;20038;-72
2021/01/06 21:08:40;;;;;;;451.95;137.32;;;;;;;;;;8191948;28;20364;-72
2021/01/06 21:12:45;;;;;;;185.45;63.10;;;;;;;;;;8174068;28;20379;-72
2021/01/06 21:16:49;;;;;;;536.50;194.98;;;;;;;;;;8174619;28;20375;-73
2021/01/06 21:20:52;;;;;;;213.27;76.28;;;;;;;;;;8174101;28;20375;-74
2021/01/06 21:24:56;;;;;;;117.38;45.25;;;;;;;;;;8192126;28;20495;-72
2021/01/06 21:28:59;;;;;;;106.43;41.53;;;;;;;;;;8191897;28;20349;-72
2021/01/06 21:33:02;;;;;;;122.05;55.20;;;;;;;;;;8191775;28;20369;-72
2021/01/06 21:37:06;;;;;;;148.73;59.58;;;;;;;;;;8192239;28;20396;-73
2021/01/06 21:41:10;;;;;;;134.18;54.50;;;;;;;;;;8192955;28;20052;-72
2021/01/06 21:45:13;;;;;;;142.07;54.92;;;;;;;;;;8192318;28;20379;-72
2021/01/06 21:49:17;;;;;;;135.23;53.00;;;;;;;;;;8178229;28;20049;-74
2021/01/06 21:53:20;;;;;;;153.50;55.22;;;;;;;;;;8181714;28;20060;-73
2021/01/06 21:57:23;;;;;;;140.20;52.90;;;;;;;;;;8198526;28;20859;-73
2021/01/06 22:01:26;;;;;;;133.50;52.15;;;;;;;;;;8191098;28;20473;-73
2021/01/06 22:05:30;;;;;;;156.05;57.58;;;;;;;;;;8165689;28;20047;-72
2021/01/06 22:09:33;;;;;;;203.48;65.93;;;;;;;;;;8193336;28;20480;-72
2021/01/06 22:13:36;;;;;;;202.10;69.80;;;;;;;;;;8179335;28;20498;-74
2021/01/06 22:17:39;;;;;;;140.32;49.97;;;;;;;;;;8197026;28;20484;-72
2021/01/06 22:21:43;;;;;;;132.00;50.13;;;;;;;;;;8179803;28;20499;-72
2021/01/06 22:25:46;;;;;;;120.20;43.97;;;;;;;;;;8196251;28;20473;-72
2021/01/06 22:29:49;;;;;;;126.28;48.17;;;;;;;;;;8195794;28;20034;-72
2021/01/06 22:33:52;;;;;;;160.93;55.85;;;;;;;;;;8196546;28;20380;-74
2021/01/06 22:37:59;;;;;;;164.25;60.13;;;;;;;;;;8196579;28;20362;-71
2021/01/06 22:42:04;;;;;;;148.27;53.10;;;;;;;;;;8162960;28;20038;-75
2021/01/06 22:46:09;;;;;;;125.90;49.17;;;;;;;;;;8178711;28;20460;-73
2021/01/06 22:50:12;;;;;;;136.57;52.55;;;;;;;;;;8177365;28;20468;-73
2021/01/06 22:54:16;;;;;;;140.95;55.85;;;;;;;;;;8194640;28;20391;-72
2021/01/06 22:58:19;;;;;;;163.40;64.72;;;;;;;;;;8178642;28;20468;-73
2021/01/06 23:02:22;;;;;;;161.85;64.38;;;;;;;;;;8195569;28;20376;-73
2021/01/06 23:06:26;;;;;;;286.27;110.72;;;;;;;;;;8162430;28;20583;-73
2021/01/06 23:10:29;;;;;;;138.00;56.45;;;;;;;;;;8195243;28;20412;-72
2021/01/06 23:14:32;;;;;;;265.85;99.55;;;;;;;;;;8177221;28;20500;-73
2021/01/06 23:18:35;;;;;;;238.68;86.53;;;;;;;;;;8194849;28;20046;-73
2021/01/06 23:22:39;;;;;;;437.27;169.65;;;;;;;;;;8194794;28;20520;-73
2021/01/06 23:26:52;;;;;;;211.43;80.75;;;;;;;;;;8088537;28;20498;-72
2021/01/06 23:30:55;;;;;;;273.00;98.63;;;;;;;;;;8194557;28;20480;-73
2021/01/06 23:34:58;;;;;;;189.27;68.80;;;;;;;;;;8177249;28;20387;-73
2021/01/06 23:39:01;;;;;;;218.38;77.97;;;;;;;;;;8194740;28;20480;-73
2021/01/06 23:43:05;;;;;;;163.70;63.22;;;;;;;;;;8161815;28;20403;-72
2021/01/06 23:47:09;;;;;;;147.63;55.25;;;;;;;;;;8176881;28;20495;-72
2021/01/06 23:51:12;;;;;;;139.55;55.63;;;;;;;;;;8176744;28;20473;-73
2021/01/06 23:55:16;;;;;;;129.70;51.60;;;;;;;;;;8176406;28;20046;-72
2021/01/06 23:59:19;;;;;;;126.88;51.65;;;;;;;;;;8193659;28;20353;-72
